Latest Weather Observations for Murrurundi Gap

IDN60801

Issued at 1:33 pm EST Monday 2 May 2016 (issued every 30 minutes, with the page automatically refreshed every 10 minutes)

About weather observations | Map of weather stations | Latest weather observations for NSW | Other Formats
Station Details ID: 061392 Name: MURRURUNDI GAP AWS Lat: -31.74 Lon: 150.79 Height: 729.4 m
Data from the previous 72 hours. | See also: Recent months at Murrurundi Gap
Date/Time
EST
Temp
°C
App
Temp
°C
Dew
Point
Rel
Hum
%
Delta-T
°C
Wind Press
QNH
hPa
Press
MSL
hPa
Rain
since 9 am
mm
Dir
 
Spd
km/h
Gust
km/h
Spd
kts
Gust
kts
02/01:30pm 18.4 14.2 12.4 68 3.5 NW 26 30 14 16 1016.2 1015.1 0.0
02/01:00pm 18.6 15.2 12.6 68 3.5 NW 22 28 12 15 1016.4 1015.4 0.0
02/12:30pm 19.7 16.4 12.7 64 4.1 NNW 22 28 12 15 1016.7 1015.7 0.0
02/12:00pm 20.2 18.6 13.9 67 3.8 NW 15 22 8 12 1017.3 1016.2 0.0
02/11:30am 18.5 16.0 13.4 72 3.0 NNW 19 24 10 13 1017.9 1016.9 0.0
02/11:00am 19.2 16.9 14.2 73 3.0 NNW 19 22 10 12 1018.4 1017.4 0.0
02/10:30am 17.7 15.5 13.2 75 2.6 NW 17 24 9 13 1018.8 1017.8 0.0
02/10:00am 16.6 14.7 12.9 79 2.1 NW 15 19 8 10 1019.1 1018.1 0.0
02/09:47am 16.0 13.6 12.6 80 1.9 NW 17 20 9 11 1019.3 1018.3 0.0
02/09:30am 16.2 13.8 12.7 80 2.0 N 17 22 9 12 1019.6 1018.6 0.0
02/09:00am 15.2 13.7 13.2 88 1.1 NNW 13 17 7 9 1019.9 1019.0 4.4
02/08:30am 15.5 15.3 13.5 88 1.2 NNW 7 13 4 7 1019.7 1018.7 4.4
02/08:00am 14.4 14.4 13.6 95 0.5 N 6 11 3 6 1019.7 1018.7 4.4
02/07:30am 13.6 13.3 13.3 98 0.2 NW 7 9 4 5 1019.8 1018.8 4.4
02/07:00am 13.4 12.7 13.2 99 0.1 NW 9 15 5 8 1019.3 1018.3 4.4
02/06:48am 13.1 12.3 12.9 99 0.1 NNW 9 17 5 9 1019.2 1018.2 4.4
02/06:30am 12.8 11.5 12.6 99 0.1 NW 11 17 6 9 1019.1 1018.1 4.4
02/06:03am 13.0 11.0 12.8 99 0.1 NW 15 19 8 10 1018.9 1017.9 4.4
02/06:00am 13.0 11.0 12.8 99 0.1 NW 15 19 8 10 1018.9 1017.9 4.4
02/05:30am 12.9 10.5 12.7 99 0.1 NW 17 19 9 10 1018.8 1017.8 4.4
02/05:25am 13.0 10.6 12.8 99 0.1 NW 17 19 9 10 1018.7 1017.7 4.4
02/05:00am 13.2 10.5 13.0 99 0.1 NNW 19 20 10 11 1018.2 1017.2 4.4
02/04:55am 13.2 10.5 13.0 99 0.1 NNW 19 22 10 12 1018.2 1017.2 4.4
02/04:30am 13.5 10.7 13.3 99 0.1 NNW 20 24 11 13 1018.2 1017.2 4.4
02/04:00am 13.6 10.9 13.4 99 0.1 NNW 20 24 11 13 1018.1 1017.1 4.4
02/03:30am 13.7 11.2 13.5 99 0.1 NNW 19 22 10 12 1018.0 1017.0 4.4
02/03:00am 13.9 11.3 13.7 99 0.1 NNW 20 26 11 14 1018.1 1017.1 4.4
02/02:30am 14.0 11.4 13.8 99 0.1 N 20 26 11 14 1018.1 1017.1 4.4
02/02:00am 14.0 11.0 13.8 99 0.1 NNW 22 28 12 15 1018.0 1017.0 4.4
02/01:30am 14.1 10.8 13.9 99 0.1 NNW 24 30 13 16 1018.2 1017.2 4.4
02/01:00am 14.3 11.4 14.1 99 0.1 NNW 22 28 12 15 1018.3 1017.3 4.4
02/12:30am 14.4 9.5 14.2 99 0.1 NNW 33 39 18 21 1018.4 1017.4 4.4
02/12:00am 14.5 9.8 14.3 99 0.1 NNW 32 37 17 20 1018.7 1017.7 4.4
 
Date/Time
EST
Temp
°C
App
Temp
°C
Dew
Point
Rel
Hum
%
Delta-T
°C
Wind Press
QNH
hPa
Press
MSL
hPa
Rain
since 9 am
mm
Dir
 
Spd
km/h
Gust
km/h
Spd
kts
Gust
kts
01/11:30pm 14.5 9.8 14.3 99 0.1 NNW 32 35 17 19 1018.9 1017.9 4.4
01/11:00pm 14.7 10.1 14.5 99 0.1 NNW 32 37 17 20 1019.1 1018.1 4.4
01/10:30pm 14.7 9.9 14.5 99 0.1 NNW 33 39 18 21 1019.1 1018.1 4.4
01/10:00pm 14.8 10.6 14.6 99 0.1 NNW 30 37 16 20 1019.1 1018.1 4.4
01/09:30pm 14.8 10.2 14.6 99 0.1 NNW 32 39 17 21 1019.1 1018.1 4.4
01/09:00pm 14.8 10.2 14.6 99 0.1 NNW 32 37 17 20 1019.1 1018.1 4.4
01/08:30pm 14.9 10.3 14.7 99 0.1 NNW 32 37 17 20 1019.1 1018.1 4.4
01/08:00pm 15.0 10.2 14.7 98 0.2 NNW 33 39 18 21 1018.8 1017.8 4.4
01/07:30pm 15.1 10.6 14.8 98 0.2 NNW 32 37 17 20 1018.4 1017.4 4.4
01/07:00pm 15.1 11.7 14.8 98 0.2 N 26 32 14 17 1018.7 1017.7 4.4
01/06:30pm 15.2 11.5 14.9 98 0.2 NNW 28 35 15 19 1018.5 1017.5 4.4
01/06:00pm 15.2 10.7 14.9 98 0.2 NW 32 39 17 21 1018.5 1017.5 4.4
01/05:30pm 15.3 10.6 14.8 97 0.3 NNW 33 39 18 21 1018.0 1017.0 4.4
01/05:00pm 15.4 11.3 14.8 96 0.4 NNW 30 41 16 22 1017.6 1016.6 4.4
01/04:30pm 15.4 11.3 14.9 97 0.3 N 30 39 16 21 1017.8 1016.8 4.4
01/04:00pm 15.4 10.7 14.8 96 0.4 NNW 33 44 18 24 1017.8 1016.8 4.4
01/03:30pm 15.4 10.7 14.9 97 0.3 NNW 33 44 18 24 1017.4 1016.3 4.4
01/03:00pm 15.5 9.8 15.2 98 0.2 NNW 39 52 21 28 1017.1 1016.1 4.4
01/02:30pm 15.4 10.1 15.2 99 0.1 NNW 37 48 20 26 1016.8 1015.8 4.4
01/02:00pm 15.3 9.2 15.1 99 0.1 NNW 41 52 22 28 1017.1 1016.1 4.4
01/01:30pm 15.2 10.2 15.0 99 0.1 NNW 35 48 19 26 1017.4 1016.3 4.4
01/01:00pm 15.2 10.2 15.0 99 0.1 NNW 35 44 19 24 1017.7 1016.7 4.4
01/12:30pm 15.3 10.3 15.0 98 0.2 NNW 35 44 19 24 1018.0 1017.0 4.4
01/12:00pm 15.4 11.0 15.2 99 0.1 NNW 32 39 17 21 1018.2 1017.2 4.4
01/11:30am 15.2 9.8 14.9 98 0.2 NNW 37 48 20 26 1018.2 1017.2 4.4
01/11:00am 15.1 9.6 14.6 97 0.3 NNW 37 44 20 24 1018.9 1017.9 4.0
01/10:55am 15.1 9.5 14.5 96 0.4 NNW 37 43 20 23 1019.0 1018.0 4.0
01/10:30am 15.4 10.5 14.3 93 0.6 NNW 33 43 18 23 1019.0 1018.0 4.0
01/10:00am 15.3 12.2 14.5 95 0.5 NNW 24 30 13 16 1019.4 1018.4 3.4
01/09:30am 14.7 12.9 14.4 98 0.2 N 17 24 9 13 1020.0 1017.9 2.2
01/09:01am 14.8 13.0 14.5 98 0.2 NW 17 32 9 17 1020.8 1018.7 0.0
01/09:00am 14.8 12.6 14.5 98 0.2 NW 19 33 10 18 1020.8 1018.7 32.8
01/08:30am 15.9 15.7 15.7 99 0.1 SSE 11 22 6 12 1020.0 1017.9 26.8
01/08:00am 16.3 16.6 16.1 99 0.1 N 9 15 5 8 1019.9 1017.8 17.2
01/07:30am 16.2 14.6 16.0 99 0.1 NW 19 22 10 12 1019.8 1017.7 10.8
01/07:28am 16.2 15.0 16.0 99 0.1 NW 17 20 9 11 1019.8 1017.7 10.4
01/07:00am 16.4 14.7 15.8 96 0.4 WNW 19 26 10 14 1019.2 1017.1 9.2
01/06:30am 17.1 15.6 15.4 90 1.0 NW 17 22 9 12 1018.5 1016.4 7.8
01/06:00am 18.4 15.4 14.9 80 2.1 NNW 24 33 13 18 1017.8 1015.6 7.6
01/05:30am 18.2 15.3 15.1 82 1.9 NNW 24 28 13 15 1017.8 1015.6 7.6
01/05:00am 18.1 14.8 15.0 82 1.9 NNW 26 35 14 19 1017.6 1015.4 7.6
01/04:30am 17.6 15.0 15.0 85 1.6 NW 22 28 12 15 1017.4 1015.2 7.6
01/04:00am 17.9 15.0 15.0 83 1.7 NNW 24 30 13 16 1017.1 1015.0 7.6
01/03:30am 17.5 15.0 15.1 86 1.4 NNW 22 32 12 17 1017.5 1015.3 7.6
01/03:00am 16.8 14.7 15.2 90 1.0 NNW 20 28 11 15 1017.7 1015.5 7.6
01/02:30am 17.3 16.2 15.3 88 1.2 NW 15 20 8 11 1018.1 1016.0 7.6
01/02:00am 17.1 15.1 15.4 90 1.0 NNW 20 26 11 14 1018.4 1016.3 7.6
01/01:30am 17.1 14.8 15.8 92 0.8 NNW 22 28 12 15 1018.8 1016.6 7.6
01/01:00am 17.5 14.9 15.8 90 1.0 N 24 33 13 18 1018.5 1016.4 7.6
01/12:30am 16.9 15.0 15.8 93 0.7 NNW 20 28 11 15 1019.1 1017.0 7.6
01/12:00am 16.8 14.9 15.7 93 0.7 NW 20 24 11 13 1019.4 1017.3 7.6
 
Date/Time
EST
Temp
°C
App
Temp
°C
Dew
Point
Rel
Hum
%
Delta-T
°C
Wind Press
QNH
hPa
Press
MSL
hPa
Rain
since 9 am
mm
Dir
 
Spd
km/h
Gust
km/h
Spd
kts
Gust
kts
30/11:30pm 17.1 15.3 16.0 93 0.7 NNW 20 26 11 14 1019.5 1017.4 7.6
30/11:00pm 17.0 15.7 15.9 93 0.7 NW 17 24 9 13 1020.0 1017.9 7.6
30/10:30pm 17.0 15.7 15.9 93 0.7 NNW 17 24 9 13 1020.4 1018.3 7.6
30/10:00pm 17.0 15.4 15.9 93 0.7 NW 19 24 10 13 1020.5 1018.4 7.6
30/09:30pm 17.4 15.8 15.9 91 0.9 NW 19 22 10 12 1020.6 1018.5 7.6
30/09:00pm 17.0 16.2 16.0 94 0.6 NW 15 22 8 12 1020.8 1018.7 7.6
30/08:30pm 17.2 16.8 16.1 93 0.7 NNW 13 19 7 10 1020.6 1018.5 7.6
30/08:00pm 17.3 16.5 16.0 92 0.8 NNW 15 19 8 10 1020.6 1018.5 7.6
30/07:30pm 17.4 16.5 15.9 91 0.9 N 15 20 8 11 1020.5 1018.4 7.6
30/07:00pm 17.3 17.0 16.5 95 0.5 N 13 19 7 10 1020.4 1018.3 7.6
30/06:30pm 17.2 16.9 16.4 95 0.5 NNW 13 17 7 9 1020.4 1018.3 7.6
30/06:00pm 17.1 16.1 16.6 97 0.3 N 17 20 9 11 1020.3 1018.1 7.6
30/05:30pm 17.1 15.7 16.6 97 0.3 NNW 19 20 10 11 1020.0 1017.9 7.6
30/05:24pm 17.1 16.1 16.6 97 0.3 NNW 17 20 9 11 1019.9 1017.8 7.6
30/05:00pm 17.3 15.8 16.8 97 0.3 NNW 20 24 11 13 1019.8 1017.7 7.6
30/04:30pm 17.4 15.9 16.8 96 0.4 NNW 20 24 11 13 1019.7 1017.6 7.6
30/04:19pm 17.4 16.0 16.9 97 0.3 NNW 20 24 11 13 1019.7 1017.6 7.6
30/04:00pm 17.5 16.1 17.0 97 0.3 NNW 20 24 11 13 1019.5 1017.4 7.6
30/03:30pm 18.0 16.4 16.5 91 0.9 NNW 20 28 11 15 1019.4 1017.3 6.8
30/03:00pm 17.8 16.9 16.8 94 0.6 NNW 17 20 9 11 1019.4 1017.3 6.4
30/02:30pm 17.5 17.9 17.2 98 0.2 NNW 11 13 6 7 1019.6 1017.5 6.4
30/02:00pm 16.8 15.7 16.3 97 0.3 WNW 17 26 9 14 1019.8 1017.7 5.8
30/01:37pm 18.1 17.0 15.2 83 1.8 NW 15 44 8 24 1019.3 1017.2 0.6
30/01:30pm 19.4 19.1 15.5 78 2.4 NNW 11 19 6 10 1019.3 1017.2 0.0
30/01:00pm 20.8 18.5 14.0 65 4.1 NW 19 24 10 13 1019.7 1017.6 0.0
30/12:30pm 20.7 17.7 13.6 64 4.2 NNW 22 30 12 16 1020.2 1018.0 0.0
30/12:00pm 20.0 17.2 13.2 65 4.0 NNW 20 28 11 15 1020.9 1018.8 0.0
30/11:30am 19.9 17.2 13.4 66 3.8 NNW 20 30 11 16 1021.5 1019.5 0.0
30/11:00am 19.6 16.5 13.3 67 3.7 NNW 22 32 12 17 1021.9 1019.8 0.0
30/10:30am 19.5 15.9 13.2 67 3.7 NNW 24 32 13 17 1022.2 1020.1 0.0
30/10:00am 19.1 14.8 13.1 68 3.5 NNW 28 35 15 19 1022.3 1020.2 0.0
30/09:30am 19.0 14.6 13.0 68 3.5 NNW 28 35 15 19 1022.2 1020.1 0.0
30/09:00am 18.3 14.1 12.5 69 3.3 NNW 26 32 14 17 1022.4 1020.3 0.0
30/08:30am 17.8 14.2 12.0 69 3.3 NNW 22 28 12 15 1022.7 1020.7 0.0
30/08:00am 17.8 13.9 12.0 69 3.3 NNW 24 30 13 16 1022.4 1020.3 0.0
30/07:30am 17.4 13.4 11.9 70 3.1 NNW 24 30 13 16 1022.2 1020.1 0.0
30/07:00am 17.3 12.5 11.6 69 3.2 NNW 28 32 15 17 1021.8 1019.7 0.0
30/06:30am 16.9 12.3 11.0 68 3.3 NNW 26 32 14 17 1021.5 1019.5 0.0
30/06:00am 16.7 12.0 10.5 67 3.4 NNW 26 30 14 16 1021.3 1019.2 0.0
30/05:30am 17.0 12.6 10.4 65 3.6 NNW 24 28 13 15 1021.1 1019.0 0.0
30/05:00am 17.2 12.7 10.1 63 3.9 NNW 24 32 13 17 1021.0 1018.9 0.0
30/04:30am 17.3 12.6 9.2 59 4.4 NNW 24 32 13 17 1020.9 1018.8 0.0
30/04:00am 17.4 12.3 9.1 58 4.5 NNW 26 33 14 18 1020.8 1018.7 0.0
30/03:30am 17.7 12.1 8.6 55 4.9 NNW 28 35 15 19 1020.7 1018.6 0.0
30/03:00am 17.8 11.6 7.8 52 5.3 NNW 30 37 16 20 1020.6 1018.5 0.0
30/02:30am 18.1 12.7 7.8 51 5.4 NNW 26 35 14 19 1020.4 1018.3 0.0
30/02:00am 18.4 13.3 7.8 50 5.6 N 24 33 13 18 1020.8 1018.7 0.0
30/01:30am 18.6 14.3 7.7 49 5.8 N 20 28 11 15 1021.2 1019.1 0.0
30/01:00am 18.3 13.6 7.7 50 5.6 NNW 22 28 12 15 1021.3 1019.2 0.0
30/12:30am 18.5 14.1 7.6 49 5.7 NNW 20 26 11 14 1021.3 1019.2 0.0
30/12:00am 19.0 14.3 7.8 48 5.9 N 22 28 12 15 1021.7 1019.6 0.0
 
Date/Time
EST
Temp
°C
App
Temp
°C
Dew
Point
Rel
Hum
%
Delta-T
°C
Wind Press
QNH
hPa
Press
MSL
hPa
Rain
since 9 am
mm
Dir
 
Spd
km/h
Gust
km/h
Spd
kts
Gust
kts
29/11:30pm 18.9 14.6 8.0 49 5.8 N 20 26 11 14 1021.8 1019.7 0.0
29/11:00pm 19.3 15.8 8.6 50 5.8 NNW 17 22 9 12 1022.1 1020.0 0.0
29/10:30pm 18.6 14.7 8.8 53 5.3 NW 19 22 10 12 1022.3 1020.2 0.0
29/10:00pm 18.8 15.3 8.7 52 5.4 NW 17 20 9 11 1022.4 1020.3 0.0
29/09:30pm 19.0 16.2 8.6 51 5.6 NW 13 15 7 8 1022.4 1020.3 0.0
29/09:00pm 19.4 17.0 8.7 50 5.8 NNW 11 13 6 7 1022.4 1020.3 0.0
29/08:30pm 19.5 17.5 8.5 49 5.9 NNW 9 11 5 6 1022.3 1020.2 0.0
29/08:00pm 19.2 17.5 8.5 50 5.7 NW 7 9 4 5 1022.1 1020.0 0.0
29/07:30pm 19.4 16.9 8.4 49 5.9 NNW 11 13 6 7 1022.3 1020.2 0.0
29/07:00pm 19.8 17.8 8.5 48 6.1 NNW 9 11 5 6 1022.1 1020.0 0.0
29/06:30pm 19.5 17.5 8.8 50 5.8 NW 9 11 5 6 1022.3 1020.2 0.0
29/06:00pm 19.8 17.8 8.8 49 6.0 NW 9 9 5 5 1022.2 1020.1 0.0
29/05:30pm 20.1 17.8 9.1 49 6.0 NW 11 15 6 8 1022.1 1020.0 0.0
29/05:00pm 21.4 19.5 9.0 45 6.8 NW 9 13 5 7 1021.4 1019.3 0.0
29/04:30pm 22.0 19.4 9.2 44 7.1 NW 13 17 7 9 1021.4 1019.3 0.0
29/04:00pm 21.9 19.2 8.8 43 7.2 NW 13 17 7 9 1021.3 1019.2 0.0
29/03:30pm 22.1 19.7 8.6 42 7.4 NW 11 19 6 10 1021.5 1019.5 0.0
29/03:00pm 22.4 19.3 8.9 42 7.4 NNW 15 20 8 11 1021.5 1019.5 0.0
29/02:30pm 22.4 18.4 8.9 42 7.5 NW 20 24 11 13 1021.5 1019.5 0.0
29/02:00pm 22.2 18.3 8.7 42 7.4 NW 19 28 10 15 1021.8 1019.7 0.0

Other Formats:

Comma delimited format used in spreadsheet applications
http://www.bom.gov.au/fwo/IDN60801/IDN60801.95747.axf

JavaScript Object Notation format (JSON) in row-major order
http://www.bom.gov.au/fwo/IDN60801/IDN60801.95747.json